Time;durP1;ratioP1;P1;durP2;ratioP2;P2;SDS_P1;SDS_P2;PMS_P1;PMS_P2;Temp;Humidity;BMP_temperature;BMP_pressure;BME280_temperature;BME280_humidity;BME280_pressure;Samples;Min_cycle;Max_cycle;Signal;HPM_P1;HPM_P2
2022/05/03 00:02:12;;;;;;;5.18;3.60;;;;;;;14.95;41.97;98849.75;5011660;28;20131;-70
2022/05/03 00:04:38;;;;;;;7.28;3.65;;;;;;;14.78;42.21;98853.84;5010174;28;20049;-70
2022/05/03 00:07:23;;;;;;;5.40;3.95;;;;;;;15.06;41.85;98852.66;5026499;28;20034;-70
2022/05/03 00:10:03;;;;;;;8.50;3.92;;;;;;;15.04;42.12;98856.53;5009315;28;20046;-71
2022/05/03 00:12:40;;;;;;;6.30;3.50;;;;;;;14.98;42.20;98844.00;5008417;28;20140;-70
2022/05/03 00:15:06;;;;;;;13.40;3.65;;;;;;;14.59;42.48;98806.56;5007825;28;20053;-72
2022/05/03 00:17:33;;;;;;;4.35;3.40;;;;;;;14.82;42.73;98842.53;5007545;28;20053;-71
2022/05/03 00:20:02;;;;;;;4.35;3.53;;;;;;;14.69;42.54;98806.97;5008152;28;20048;-71
2022/05/03 00:22:29;;;;;;;6.38;3.58;;;;;;;14.67;42.50;98803.66;4992311;28;20108;-71
2022/05/03 00:24:56;;;;;;;4.95;3.60;;;;;;;14.68;42.82;98829.38;4991858;28;20081;-71
2022/05/03 00:27:26;;;;;;;8.18;4.20;;;;;;;14.78;43.08;98833.28;4975910;28;20510;-70
2022/05/03 00:29:54;;;;;;;10.70;4.00;;;;;;;14.83;42.71;98838.84;4993608;28;20537;-70
2022/05/03 00:32:21;;;;;;;6.57;3.47;;;;;;;14.73;43.03;98826.94;4993643;28;20223;-70
2022/05/03 00:34:48;;;;;;;5.40;4.28;;;;;;;14.72;43.22;98825.25;5009966;28;20100;-70
2022/05/03 00:37:14;;;;;;;7.57;4.20;;;;;;;14.48;43.74;98829.34;4993836;28;20048;-70
2022/05/03 00:39:40;;;;;;;6.88;4.05;;;;;;;14.57;43.75;98820.13;4993301;28;20041;-70
2022/05/03 00:42:11;;;;;;;5.57;4.03;;;;;;;14.86;43.37;98829.59;4993293;28;20506;-70
2022/05/03 00:45:00;;;;;;;5.47;4.03;;;;;;;14.63;43.30;98807.78;5009549;28;20053;-70
2022/05/03 00:47:35;;;;;;;5.82;4.22;;;;;;;14.78;43.12;98792.38;5010020;28;20045;-70
2022/05/03 00:50:09;;;;;;;8.65;3.67;;;;;;;14.85;43.49;98814.59;5009969;28;20045;-70
2022/05/03 00:52:50;;;;;;;11.60;3.97;;;;;;;14.83;43.46;98805.94;5026135;28;20048;-70
2022/05/03 00:55:36;;;;;;;10.88;4.07;;;;;;;14.88;43.34;98812.31;5009519;28;20042;-71
2022/05/03 00:58:02;;;;;;;5.85;4.03;;;;;;;14.57;43.67;98812.09;5009416;28;20128;-70
2022/05/03 01:00:28;;;;;;;5.57;3.85;;;;;;;14.50;43.95;98791.75;4993053;28;20053;-70
2022/05/03 01:03:07;;;;;;;10.15;4.35;;;;;;;14.47;45.04;98811.66;5009314;28;20044;-71
2022/05/03 01:06:07;;;;;;;5.05;3.80;;;;;;;14.51;44.96;98810.25;5009284;28;20077;-70
2022/05/03 01:08:33;;;;;;;7.80;4.70;;;;;;;14.17;45.42;98814.84;5025791;28;20131;-70
2022/05/03 01:11:16;;;;;;;8.13;4.30;;;;;;;14.27;45.63;98802.78;5009212;28;20076;-71
2022/05/03 01:13:51;;;;;;;7.45;4.30;;;;;;;14.26;45.79;98800.31;4992883;28;20089;-71
2022/05/03 01:16:27;;;;;;;6.53;4.63;;;;;;;14.18;45.72;98803.13;4996361;28;20053;-70
2022/05/03 01:18:55;;;;;;;10.18;4.28;;;;;;;14.26;45.72;98803.81;4996117;28;20045;-71
2022/05/03 01:22:02;;;;;;;7.13;4.35;;;;;;;14.38;45.27;98785.31;5013136;28;20053;-70
2022/05/03 01:24:54;;;;;;;8.48;4.63;;;;;;;14.37;45.29;98797.06;5016230;28;20059;-70
2022/05/03 01:27:49;;;;;;;8.25;4.03;;;;;;;14.36;45.53;98785.53;5016372;28;20042;-69
2022/05/03 01:30:15;;;;;;;8.02;4.35;;;;;;;13.92;46.10;98763.81;4998512;28;20041;-70
2022/05/03 01:32:43;;;;;;;7.10;4.30;;;;;;;14.11;46.18;98789.78;5000070;28;20044;-70
2022/05/03 01:35:12;;;;;;;5.45;4.47;;;;;;;14.07;46.15;98763.69;5016590;28;20045;-70
2022/05/03 01:37:38;;;;;;;6.13;4.82;;;;;;;14.02;46.27;98782.13;5032629;28;20041;-70
2022/05/03 01:40:11;;;;;;;6.75;5.05;;;;;;;14.21;46.06;98784.03;5016034;28;20095;-70
2022/05/03 01:42:49;;;;;;;6.57;5.18;;;;;;;13.89;46.27;98776.72;5000075;28;20539;-70
2022/05/03 01:45:23;;;;;;;8.18;5.13;;;;;;;13.91;46.70;98780.03;5032497;28;20580;-71
2022/05/03 01:48:11;;;;;;;9.75;5.25;;;;;;;14.02;46.34;98774.97;5000194;28;20502;-69
2022/05/03 01:50:37;;;;;;;7.45;5.30;;;;;;;13.71;46.81;98779.97;5032181;28;20048;-69
2022/05/03 01:53:21;;;;;;;8.60;5.00;;;;;;;13.71;47.05;98769.28;5016003;28;20132;-68
2022/05/03 01:56:24;;;;;;;7.28;5.13;;;;;;;13.96;46.96;98780.28;5032348;28;20083;-70
2022/05/03 01:59:11;;;;;;;7.43;5.22;;;;;;;13.91;46.76;98753.34;4999489;28;20041;-69
2022/05/03 02:01:43;;;;;;;7.05;5.22;;;;;;;14.06;46.78;98784.19;5032579;28;20038;-71
2022/05/03 02:04:12;;;;;;;9.10;5.32;;;;;;;13.84;46.85;98779.19;4999128;28;21250;-71
2022/05/03 02:07:02;;;;;;;9.15;5.40;;;;;;;14.09;46.74;98780.28;5015654;28;20632;-70
2022/05/03 02:09:45;;;;;;;6.50;4.95;;;;;;;14.01;46.84;98783.97;5031920;28;20405;-70
2022/05/03 02:12:14;;;;;;;7.82;4.93;;;;;;;13.98;47.15;98775.53;5033449;28;20469;-69
2022/05/03 02:14:54;;;;;;;13.52;5.70;;;;;;;14.01;47.12;98777.84;4999158;28;20152;-69
2022/05/03 02:17:43;;;;;;;10.23;5.43;;;;;;;13.85;47.00;98741.63;5014985;28;20062;-69
2022/05/03 02:20:50;;;;;;;9.05;5.50;;;;;;;14.06;46.93;98780.69;5030878;28;20049;-70
2022/05/03 02:23:55;;;;;;;10.95;5.05;;;;;;;13.92;47.35;98779.00;4957846;28;20425;-69
2022/05/03 02:26:36;;;;;;;8.23;5.45;;;;;;;14.00;47.24;98765.47;4983883;28;20055;-70
2022/05/03 02:29:14;;;;;;;9.98;5.60;;;;;;;14.06;47.24;98768.19;5007483;28;20148;-70
2022/05/03 02:31:51;;;;;;;11.35;5.82;;;;;;;13.82;47.55;98763.38;5014216;28;20049;-71
2022/05/03 02:34:31;;;;;;;9.27;5.60;;;;;;;13.94;47.25;98745.78;5013419;28;20056;-70
2022/05/03 02:37:12;;;;;;;7.63;5.13;;;;;;;14.05;47.42;98757.69;4981753;28;20041;-71
2022/05/03 02:39:45;;;;;;;11.77;5.70;;;;;;;14.07;47.40;98761.00;4997814;28;20061;-70
2022/05/03 02:42:12;;;;;;;9.30;5.03;;;;;;;13.99;47.47;98761.19;5014329;28;20107;-70
2022/05/03 02:44:40;;;;;;;11.50;5.47;;;;;;;13.91;47.92;98753.34;4998594;28;20136;-70
2022/05/03 02:47:10;;;;;;;9.23;6.43;;;;;;;13.96;47.82;98751.72;5031735;28;20103;-77
2022/05/03 02:50:06;;;;;;;8.95;6.00;;;;;;;13.86;47.49;98731.75;4998206;28;20068;-72
2022/05/03 02:52:41;;;;;;;9.07;6.32;;;;;;;13.96;47.67;98757.03;4997749;28;20045;-73
2022/05/03 02:55:22;;;;;;;9.85;5.90;;;;;;;14.11;47.35;98749.72;5013528;28;20049;-72
2022/05/03 02:57:52;;;;;;;7.93;5.43;;;;;;;13.82;47.65;98749.22;4997652;28;20132;-72
2022/05/03 03:03:24;;;;;;;12.65;6.35;;;;;;;13.98;47.71;98743.50;4999962;28;20046;-74
2022/05/03 03:05:56;;;;;;;9.18;6.13;;;;;;;13.99;47.50;98745.97;5013568;28;20095;-72
2022/05/03 03:08:23;;;;;;;9.52;5.88;;;;;;;13.83;47.84;98740.16;5030443;28;20077;-75
2022/05/03 03:10:58;;;;;;;10.90;6.35;;;;;;;14.13;47.30;98731.63;4997455;28;20045;-72
2022/05/03 03:13:48;;;;;;;9.52;5.70;;;;;;;14.00;47.47;98710.25;5013866;28;20146;-71
2022/05/03 03:16:15;;;;;;;10.03;5.93;;;;;;;13.96;47.57;98740.22;4968001;28;1305709;-72
2022/05/03 03:18:42;;;;;;;10.07;5.95;;;;;;;14.14;47.32;98740.47;4997878;28;20045;-73
2022/05/03 03:21:11;;;;;;;9.30;5.88;;;;;;;14.17;46.97;98737.41;4998212;28;20733;-70
2022/05/03 03:23:40;;;;;;;10.55;6.28;;;;;;;14.21;47.30;98728.78;4998191;28;20069;-73
2022/05/03 03:26:07;;;;;;;11.00;5.57;;;;;;;14.10;47.42;98712.53;4998128;28;20505;-72
2022/05/03 03:28:36;;;;;;;9.88;6.80;;;;;;;14.25;47.10;98718.53;5014920;28;20041;-73
2022/05/03 03:31:03;;;;;;;11.65;6.35;;;;;;;14.18;47.26;98702.47;4982166;28;20038;-75
2022/05/03 03:33:32;;;;;;;9.82;5.60;;;;;;;14.32;47.14;98720.19;4966681;28;20050;-74
2022/05/03 03:36:03;;;;;;;8.77;5.50;;;;;;;14.37;46.97;98716.91;4998075;28;20099;-75
2022/05/03 03:38:39;;;;;;;7.38;5.30;;;;;;;14.61;46.52;98717.13;4996599;28;20136;-83
2022/05/03 03:41:06;;;;;;;7.35;5.55;;;;;;;14.43;46.74;98706.25;4996653;28;20430;-74
2022/05/03 03:43:33;;;;;;;9.20;5.40;;;;;;;14.43;46.76;98714.25;4996046;28;20045;-74
2022/05/03 03:45:59;;;;;;;11.13;4.88;;;;;;;14.63;46.48;98727.63;5029186;28;20047;-79
2022/05/03 03:48:25;;;;;;;8.02;5.47;;;;;;;14.82;45.95;98724.13;5013051;28;20045;-72
2022/05/03 03:50:53;;;;;;;6.90;4.95;;;;;;;15.11;45.43;98729.81;5012577;28;20049;-73
2022/05/03 03:53:19;;;;;;;6.78;5.25;;;;;;;15.16;45.31;98713.13;4997385;28;20440;-72
2022/05/03 03:55:45;;;;;;;12.60;5.25;;;;;;;15.12;45.13;98680.66;4965284;28;20478;-72
2022/05/03 03:58:13;;;;;;;6.47;5.15;;;;;;;15.40;44.74;98712.50;4981032;28;20169;-71
2022/05/03 04:00:39;;;;;;;8.30;5.30;;;;;;;15.52;44.63;98709.97;5014042;28;20555;-71
2022/05/03 04:03:07;;;;;;;7.38;5.47;;;;;;;15.62;44.75;98707.69;4981497;28;20564;-71
2022/05/03 04:05:34;;;;;;;10.93;5.60;;;;;;;15.71;44.51;98704.56;5014319;28;20500;-72
2022/05/03 04:08:01;;;;;;;7.40;5.30;;;;;;;15.64;44.56;98711.78;4980795;28;20052;-70
2022/05/03 04:10:27;;;;;;;7.40;5.18;;;;;;;15.72;44.62;98714.22;5013747;28;20045;-70
2022/05/03 04:12:53;;;;;;;10.85;4.68;;;;;;;15.60;44.18;98673.09;5012965;28;20128;-70
2022/05/03 04:15:20;;;;;;;8.73;4.97;;;;;;;15.91;43.99;98701.78;4996754;28;20180;-70
2022/05/03 04:17:46;;;;;;;6.95;4.75;;;;;;;15.94;43.50;98693.31;5013023;28;20508;-70
2022/05/03 04:20:13;;;;;;;6.18;4.38;;;;;;;16.13;43.38;98703.91;4996847;28;20042;-70
2022/05/03 04:22:38;;;;;;;9.02;4.63;;;;;;;16.22;43.00;98691.88;4997083;28;20041;-70
2022/05/03 04:25:05;;;;;;;7.43;5.20;;;;;;;16.32;42.92;98694.91;5013141;28;20037;-71
2022/05/03 04:27:32;;;;;;;7.60;4.40;;;;;;;16.29;42.94;98700.72;4980752;28;20155;-72
2022/05/03 04:30:00;;;;;;;6.72;4.00;;;;;;;16.63;42.34;98716.38;4997004;28;20087;-74
2022/05/03 04:32:30;;;;;;;8.10;4.10;;;;;;;16.64;42.12;98699.22;5013068;28;20456;-70
2022/05/03 04:34:56;;;;;;;5.82;3.95;;;;;;;16.52;42.34;98700.16;5029651;28;20063;-74
2022/05/03 04:37:22;;;;;;;7.03;4.50;;;;;;;16.50;42.13;98697.69;4980647;28;20045;-72
2022/05/03 04:39:47;;;;;;;8.05;4.13;;;;;;;16.36;42.04;98663.94;4980553;28;20091;-71
2022/05/03 04:42:14;;;;;;;8.57;4.28;;;;;;;16.66;41.81;98697.16;4996562;28;20046;-73
2022/05/03 04:44:39;;;;;;;15.00;4.53;;;;;;;16.46;41.93;98675.06;5029645;28;20049;-73
2022/05/03 04:47:05;;;;;;;11.38;4.28;;;;;;;16.79;41.57;98691.66;5013100;28;20042;-73
2022/05/03 04:49:34;;;;;;;5.15;3.65;;;;;;;16.95;41.34;98684.91;5029798;28;20045;-72
2022/05/03 04:52:00;;;;;;;5.30;3.88;;;;;;;16.81;41.60;98684.22;5013275;28;20041;-73
2022/05/03 04:54:26;;;;;;;5.55;4.03;;;;;;;17.15;40.71;98688.22;5012783;28;20044;-73
2022/05/03 04:56:55;;;;;;;6.70;4.05;;;;;;;17.30;40.87;98690.53;5029394;28;20075;-72
2022/05/03 04:59:21;;;;;;;8.65;4.00;;;;;;;17.14;40.75;98680.38;4964476;28;20053;-72
2022/05/03 05:01:46;;;;;;;6.22;3.78;;;;;;;17.04;41.06;98698.84;5013291;28;20037;-68
2022/05/03 05:04:12;;;;;;;6.45;4.18;;;;;;;16.81;41.25;98678.88;5012508;28;20442;-75
2022/05/03 05:06:38;;;;;;;5.68;3.83;;;;;;;16.98;41.13;98683.63;5029001;28;20049;-71
2022/05/03 05:09:04;;;;;;;9.15;4.10;;;;;;;17.14;40.93;98677.72;5029875;28;20049;-74
2022/05/03 05:11:30;;;;;;;4.90;3.95;;;;;;;17.46;40.37;98682.72;4998641;28;20140;-70
2022/05/03 05:13:55;;;;;;;7.07;3.80;;;;;;;17.46;40.17;98673.84;4999427;28;20544;-71
2022/05/03 05:16:21;;;;;;;9.50;4.07;;;;;;;17.59;40.05;98657.59;4983103;28;20098;-71
2022/05/03 05:18:47;;;;;;;6.63;3.80;;;;;;;17.88;39.35;98675.59;5015751;28;20049;-70
2022/05/03 05:21:13;;;;;;;8.90;3.88;;;;;;;17.81;39.71;98677.53;4983364;28;20041;-72
2022/05/03 05:23:39;;;;;;;7.82;4.07;;;;;;;17.89;39.65;98672.66;5049287;28;20466;-71
2022/05/03 05:26:05;;;;;;;6.57;3.65;;;;;;;17.83;39.39;98678.97;5016237;28;20068;-75
2022/05/03 05:28:30;;;;;;;5.57;3.88;;;;;;;17.63;39.69;98661.44;5016296;28;20571;-74
2022/05/03 05:30:56;;;;;;;6.40;4.03;;;;;;;17.71;39.72;98653.88;4999575;28;20493;-72
2022/05/03 05:33:22;;;;;;;4.47;3.53;;;;;;;17.94;39.31;98663.94;4999069;28;20416;-71
2022/05/03 05:35:49;;;;;;;7.72;3.60;;;;;;;17.74;39.82;98666.06;5031877;28;20048;-70
2022/05/03 05:38:16;;;;;;;6.90;3.70;;;;;;;18.03;39.21;98666.06;5032507;28;20127;-72
2022/05/03 05:40:43;;;;;;;4.43;3.65;;;;;;;18.24;39.06;98649.41;5032152;28;20052;-72
2022/05/03 05:43:09;;;;;;;6.95;3.90;;;;;;;18.13;38.59;98669.00;4983197;28;20102;-72
2022/05/03 05:45:35;;;;;;;5.93;3.58;;;;;;;18.35;38.81;98645.09;4998635;28;20139;-71
2022/05/03 05:48:00;;;;;;;4.78;3.60;;;;;;;18.45;38.31;98645.38;4982410;28;20079;-70
2022/05/03 05:50:27;;;;;;;7.72;3.50;;;;;;;18.45;38.22;98635.44;5030894;28;20076;-70
2022/05/03 05:55:37;;;;;;;7.95;3.60;;;;;;;18.58;38.25;98634.41;5013115;28;20136;-72
2022/05/03 05:58:03;;;;;;;5.50;3.67;;;;;;;18.64;38.01;98632.63;5014407;28;20128;-71
2022/05/03 06:00:30;;;;;;;5.20;3.50;;;;;;;18.85;37.59;98640.94;5006165;28;20048;-71
2022/05/03 06:02:57;;;;;;;6.22;4.00;;;;;;;19.18;36.97;98643.00;4981687;28;20041;-71
2022/05/03 06:05:22;;;;;;;6.10;3.53;;;;;;;19.14;36.67;98604.16;5006118;28;20073;-71
2022/05/03 06:07:48;;;;;;;14.45;3.67;;;;;;;18.97;36.59;98625.63;4995786;28;20100;-72
2022/05/03 06:10:14;;;;;;;6.13;3.10;;;;;;;19.28;36.19;98622.53;5032335;28;20532;-71
2022/05/03 06:12:40;;;;;;;4.10;3.35;;;;;;;19.47;35.76;98629.38;5015475;28;20056;-72
2022/05/03 06:15:07;;;;;;;8.10;3.63;;;;;;;19.62;35.62;98621.59;5016072;28;20045;-72
2022/05/03 06:17:32;;;;;;;10.13;3.45;;;;;;;19.73;35.88;98615.34;4967412;28;20053;-71
2022/05/03 06:19:58;;;;;;;4.10;3.40;;;;;;;19.99;35.39;98612.06;5032161;28;20059;-72
2022/05/03 06:22:24;;;;;;;7.47;3.47;;;;;;;20.00;35.26;98600.22;5016566;28;20136;-71
2022/05/03 06:24:52;;;;;;;4.78;3.30;;;;;;;20.44;34.51;98597.72;4999559;28;20492;-71
2022/05/03 06:27:17;;;;;;;4.95;3.50;;;;;;;20.42;34.25;98594.47;5001112;28;20527;-72
2022/05/03 06:29:43;;;;;;;5.95;3.60;;;;;;;20.23;34.21;98602.00;5016893;28;20041;-72
2022/05/03 06:32:12;;;;;;;8.98;3.92;;;;;;;20.28;34.25;98587.78;5001232;28;20041;-72
2022/05/03 06:34:38;;;;;;;6.20;3.60;;;;;;;20.33;34.17;98609.44;5017654;28;20089;-72
2022/05/03 06:37:05;;;;;;;6.18;3.85;;;;;;;20.57;33.98;98595.53;5002165;28;20056;-73
2022/05/03 06:39:30;;;;;;;10.00;3.20;;;;;;;20.48;33.40;98561.91;4986127;28;20413;-72
2022/05/03 06:41:56;;;;;;;12.85;3.28;;;;;;;20.44;33.19;98581.53;5017109;28;20037;-71
2022/05/03 06:44:22;;;;;;;7.50;3.05;;;;;;;20.68;32.73;98604.59;5001334;28;20060;-71
2022/05/03 06:46:49;;;;;;;8.57;2.75;;;;;;;21.01;32.62;98585.63;4999285;28;20057;-72
2022/05/03 06:49:18;;;;;;;10.95;3.17;;;;;;;20.96;32.08;98559.41;4998543;28;20362;-72
2022/05/03 06:51:44;;;;;;;5.63;3.15;;;;;;;21.03;31.82;98568.13;4999326;28;20052;-72
2022/05/03 06:54:10;;;;;;;3.92;3.20;;;;;;;20.94;31.90;98552.59;5015362;28;20041;-73
2022/05/03 06:56:36;;;;;;;5.75;3.22;;;;;;;20.72;31.36;98573.34;5015173;28;20066;-73
2022/05/03 06:59:08;;;;;;;6.30;2.85;;;;;;;21.50;30.69;98565.72;5014962;28;20535;-73
2022/05/03 07:01:36;;;;;;;4.18;2.78;;;;;;;21.33;30.88;98576.59;5033156;28;20041;-73
2022/05/03 07:04:02;;;;;;;3.80;2.90;;;;;;;21.70;30.58;98561.34;4998873;28;20128;-75
2022/05/03 07:06:28;;;;;;;6.07;2.78;;;;;;;21.65;30.03;98557.75;4998742;28;20128;-73
2022/05/03 07:08:54;;;;;;;3.58;2.90;;;;;;;21.91;29.21;98581.28;5031477;28;20050;-72
2022/05/03 07:11:20;;;;;;;5.80;3.00;;;;;;;22.15;28.90;98552.03;4998587;28;20045;-73
2022/05/03 07:13:48;;;;;;;4.53;3.00;;;;;;;22.45;28.20;98538.75;5014707;28;20034;-72
2022/05/03 07:16:13;;;;;;;6.40;3.03;;;;;;;23.07;27.74;98554.00;4998028;28;20129;-71
2022/05/03 07:24:08;;;;;;;5.82;2.83;;;;;;;25.02;24.33;98528.09;5000560;28;20135;-71
2022/05/03 07:26:33;;;;;;;3.92;2.80;;;;;;;26.11;22.72;98538.66;5014267;28;20152;-72
2022/05/03 07:28:59;;;;;;;5.10;2.80;;;;;;;25.26;23.53;98528.28;5030638;28;20509;-71
2022/05/03 07:31:25;;;;;;;7.20;3.10;;;;;;;24.08;24.05;98529.91;5013974;28;20037;-72
2022/05/03 07:33:53;;;;;;;5.43;2.65;;;;;;;24.60;23.98;98544.75;5013938;28;20045;-70
2022/05/03 07:36:19;;;;;;;5.63;3.05;;;;;;;26.85;22.03;98528.16;5014210;28;20128;-71
2022/05/03 07:38:48;;;;;;;4.68;2.60;;;;;;;28.23;19.74;98543.22;4997537;28;20037;-71
2022/05/03 07:41:15;;;;;;;6.93;3.20;;;;;;;28.71;18.93;98569.97;4998209;28;20044;-71
2022/05/03 07:43:43;;;;;;;9.15;2.90;;;;;;;27.92;19.85;98515.59;4981813;28;20053;-72
2022/05/03 07:46:09;;;;;;;14.25;2.60;;;;;;;28.68;19.49;98502.25;4998000;28;20049;-73
2022/05/03 07:48:35;;;;;;;9.52;2.80;;;;;;;29.00;18.85;98504.09;5013783;28;20041;-71
2022/05/03 07:51:00;;;;;;;8.35;2.65;;;;;;;27.74;18.65;98546.38;5014145;28;20037;-71
2022/05/03 07:53:26;;;;;;;5.97;2.85;;;;;;;26.10;20.35;98505.19;4998098;28;20183;-73
2022/05/03 07:55:55;;;;;;;5.50;2.72;;;;;;;25.59;21.14;98486.78;4999101;28;20051;-73
2022/05/03 07:58:22;;;;;;;7.53;2.70;;;;;;;25.92;21.18;98484.09;5006068;28;20029;-72
2022/05/03 08:00:49;;;;;;;7.57;2.63;;;;;;;27.76;18.72;98482.25;4984258;28;20044;-73
2022/05/03 08:03:16;;;;;;;6.07;2.70;;;;;;;28.47;17.82;98514.69;4997417;28;20072;-74
2022/05/03 08:05:45;;;;;;;5.28;2.60;;;;;;;27.99;18.61;98495.00;4998987;28;20048;-74
2022/05/03 08:08:11;;;;;;;5.35;2.58;;;;;;;27.25;19.11;98511.34;5000057;28;20081;-71
2022/05/03 08:10:37;;;;;;;6.20;2.22;;;;;;;27.07;18.33;98487.56;5000469;28;20528;-72
2022/05/03 08:13:02;;;;;;;6.85;2.65;;;;;;;25.39;19.95;98476.84;4999343;28;20040;-71
2022/05/03 08:15:28;;;;;;;3.72;2.65;;;;;;;23.97;20.80;98477.53;5016514;28;20512;-71
2022/05/03 08:17:55;;;;;;;6.13;3.08;;;;;;;23.58;21.33;98459.34;4983445;28;20193;-71
2022/05/03 08:20:20;;;;;;;5.30;2.45;;;;;;;24.29;20.84;98474.53;5033138;28;20413;-71
2022/05/03 08:22:46;;;;;;;8.73;2.63;;;;;;;23.97;21.32;98463.19;5000379;28;20052;-71
2022/05/03 08:25:12;;;;;;;7.55;2.83;;;;;;;24.76;20.93;98483.13;4983501;28;20044;-71
2022/05/03 08:27:40;;;;;;;5.47;2.33;;;;;;;25.19;19.80;98471.50;4983809;28;20191;-71
2022/05/03 08:30:08;;;;;;;8.13;2.53;;;;;;;24.61;20.09;98473.09;5015097;28;20037;-71
2022/05/03 08:32:34;;;;;;;5.05;2.80;;;;;;;23.28;21.65;98451.97;5029696;28;20099;-71
2022/05/03 08:35:00;;;;;;;7.95;2.97;;;;;;;22.05;22.36;98449.22;4983371;28;20094;-71
2022/05/03 08:42:55;;;;;;;6.95;2.53;;;;;;;23.16;21.45;98463.03;5029818;28;20045;-71
2022/05/03 08:45:21;;;;;;;5.45;2.50;;;;;;;23.54;21.03;98437.38;5032230;28;20037;-70
2022/05/03 08:47:48;;;;;;;5.18;2.70;;;;;;;22.62;21.36;98450.91;5016113;28;20044;-70
2022/05/03 08:50:19;;;;;;;7.75;2.70;;;;;;;23.68;21.11;98456.66;5016923;28;20098;-71
2022/05/03 08:52:54;;;;;;;12.38;2.45;;;;;;;26.68;17.65;98456.19;5050658;28;20045;-72
2022/05/03 08:55:21;;;;;;;3.75;2.55;;;;;;;26.75;15.85;98424.75;5015603;28;20098;-73
2022/05/03 08:57:48;;;;;;;6.28;2.20;;;;;;;26.91;15.93;98428.91;5032994;28;20048;-72
2022/05/03 09:00:15;;;;;;;11.57;2.65;;;;;;;26.91;16.25;98428.91;5015615;28;20071;-72
2022/05/03 09:02:49;;;;;;;6.75;2.50;;;;;;;24.36;18.59;98450.63;5015550;28;20178;-71
2022/05/03 09:05:16;;;;;;;4.25;2.90;;;;;;;27.47;16.08;98431.69;5016141;28;20562;-70
2022/05/03 09:07:50;;;;;;;9.85;2.58;;;;;;;28.09;14.85;98458.53;5016089;28;20417;-70
2022/05/03 09:10:39;;;;;;;5.40;2.58;;;;;;;29.83;13.69;98399.66;5032227;28;20045;-69
2022/05/03 09:13:16;;;;;;;4.72;2.58;;;;;;;28.20;14.33;98426.41;5031531;28;20147;-71
2022/05/03 09:15:42;;;;;;;7.43;2.40;;;;;;;28.35;14.79;98388.69;5032148;28;20551;-74
2022/05/03 09:18:11;;;;;;;5.03;2.50;;;;;;;29.40;13.58;98443.88;5032162;28;20053;-71
2022/05/03 09:23:47;;;;;;;10.23;2.53;;;;;;;29.98;12.54;98440.31;5034268;28;20471;-73
2022/05/03 09:26:14;;;;;;;3.35;2.38;;;;;;;30.64;12.15;98442.94;5000011;28;20040;-72
2022/05/03 09:29:05;;;;;;;6.05;2.40;;;;;;;31.30;11.83;98423.50;4999234;28;20045;-73
2022/05/03 09:31:31;;;;;;;;;;;;;;;31.93;11.27;98409.91;5049333;28;20126;-73
2022/05/03 09:33:59;;;;;;;5.22;2.53;;;;;;;32.88;11.31;98396.63;4999512;28;19921;-73
2022/05/03 09:36:26;;;;;;;6.95;2.50;;;;;;;32.58;10.80;98404.06;4999400;28;20033;-72
2022/05/03 09:38:54;;;;;;;6.07;3.15;;;;;;;32.30;11.76;98394.63;5015937;28;20068;-71
2022/05/03 09:41:21;;;;;;;8.30;2.88;;;;;;;33.04;10.78;98370.16;5031986;28;20501;-72
2022/05/03 09:44:06;;;;;;;4.68;2.50;;;;;;;30.30;12.32;98382.53;5018469;28;20127;-73
2022/05/03 09:46:51;;;;;;;6.68;2.65;;;;;;;28.61;13.86;98380.81;5035883;28;20479;-73
2022/05/03 09:49:31;;;;;;;4.15;2.90;;;;;;;28.67;14.06;98376.84;5003314;28;20094;-72
2022/05/03 09:51:58;;;;;;;7.88;2.83;;;;;;;30.50;13.16;98376.47;5036328;28;20101;-72
2022/05/03 09:54:24;;;;;;;8.68;2.60;;;;;;;32.27;11.24;98387.84;5019443;28;20052;-72
2022/05/03 09:56:50;;;;;;;6.22;2.50;;;;;;;32.90;10.05;98367.69;5002996;28;20060;-70
2022/05/03 09:59:16;;;;;;;9.63;2.30;;;;;;;32.60;10.44;98349.53;5019344;28;20091;-70
2022/05/03 10:01:42;;;;;;;4.50;1.90;;;;;;;33.21;10.33;98365.34;5035790;28;20053;-73
2022/05/03 10:04:08;;;;;;;6.35;2.30;;;;;;;32.18;10.82;98376.03;5021424;28;20045;-74
2022/05/03 10:06:34;;;;;;;8.65;2.42;;;;;;;30.50;11.93;98358.13;5035641;28;20131;-72
2022/05/03 10:09:01;;;;;;;8.73;2.38;;;;;;;29.36;12.73;98344.41;5018820;28;20447;-71
2022/05/03 10:11:29;;;;;;;5.82;2.70;;;;;;;29.50;12.75;98341.59;5035422;28;20041;-72
2022/05/03 10:13:55;;;;;;;5.63;2.20;;;;;;;30.64;11.79;98448.44;5018713;28;20055;-71
2022/05/03 10:21:56;;;;;;;20.70;3.40;;;;;;;28.95;13.54;98364.78;5052955;28;20045;-73
2022/05/03 10:24:22;;;;;;;3.50;2.10;;;;;;;29.53;13.21;98341.78;5030814;28;20049;-73
2022/05/03 10:27:06;;;;;;;6.80;2.50;;;;;;;31.36;11.54;98334.38;5045187;28;20496;-72
2022/05/03 10:29:35;;;;;;;3.38;1.77;;;;;;;31.28;11.54;98361.78;5055253;28;20091;-73
2022/05/03 10:32:07;;;;;;;6.20;1.95;;;;;;;30.87;11.76;98340.31;5054721;28;20071;-72
2022/05/03 10:34:42;;;;;;;4.18;2.00;;;;;;;31.22;11.37;98336.44;5070727;28;20045;-71
2022/05/03 10:37:10;;;;;;;3.88;2.20;;;;;;;31.74;10.98;98349.00;5072002;28;20041;-72
2022/05/03 10:39:48;;;;;;;4.93;2.15;;;;;;;31.93;11.22;98352.25;5054523;28;20052;-72
2022/05/03 10:42:15;;;;;;;6.53;2.10;;;;;;;32.10;10.44;98332.13;5054402;28;20049;-72
2022/05/03 10:44:44;;;;;;;5.00;2.22;;;;;;;31.23;11.31;98313.38;5004964;28;20048;-73
2022/05/03 10:47:17;;;;;;;8.35;2.35;;;;;;;29.79;12.22;98332.94;5032196;28;20529;-74
2022/05/03 10:50:17;;;;;;;7.68;2.25;;;;;;;28.99;13.16;98316.56;5034160;28;20083;-73
2022/05/03 10:52:58;;;;;;;8.88;2.13;;;;;;;27.54;13.67;98314.81;5051306;28;20603;-74
2022/05/03 10:55:24;;;;;;;;;;;;;;;26.72;14.10;98326.47;5051948;28;20043;-71
2022/05/03 10:58:18;;;;;;;3.22;1.92;;;;;;;26.88;14.45;98309.59;5001528;28;19975;-71
2022/05/03 11:01:03;;;;;;;4.53;2.00;;;;;;;26.31;15.03;98310.63;5033651;28;20511;-72
2022/05/03 11:03:30;;;;;;;9.85;1.90;;;;;;;27.15;14.18;98309.75;5014923;28;20053;-73
2022/05/03 11:06:37;;;;;;;5.75;1.60;;;;;;;26.86;13.75;98344.53;4997517;28;20136;-74
2022/05/03 11:11:44;;;;;;;19.77;2.33;;;;;;;27.40;13.90;98308.53;5026885;28;20056;-74
2022/05/03 11:14:16;;;;;;;6.13;1.83;;;;;;;27.43;13.82;98295.09;5017104;28;20124;-75
2022/05/03 11:17:05;;;;;;;6.22;1.80;;;;;;;26.19;14.86;98307.50;5000098;28;20155;-75
2022/05/03 11:19:33;;;;;;;5.25;1.70;;;;;;;25.25;15.38;98296.44;5025269;28;20052;-74
2022/05/03 11:22:00;;;;;;;3.95;1.60;;;;;;;25.40;15.50;98282.75;5001265;28;20401;-75
2022/05/03 11:24:30;;;;;;;6.50;1.88;;;;;;;25.77;15.26;98290.28;5029676;28;20398;-74
2022/05/03 11:27:08;;;;;;;4.03;1.90;;;;;;;24.79;16.05;98281.59;4983298;28;20041;-74
2022/05/03 11:29:41;;;;;;;4.95;1.60;;;;;;;24.74;16.12;98278.91;5034114;28;20136;-75
2022/05/03 11:32:08;;;;;;;5.47;2.10;;;;;;;25.48;15.97;98275.91;5017466;28;20056;-76
2022/05/03 11:34:34;;;;;;;5.95;1.80;;;;;;;25.22;15.50;98310.59;5017558;28;20037;-76
2022/05/03 11:37:02;;;;;;;4.88;1.67;;;;;;;25.39;15.70;98253.97;5001290;28;20052;-76
2022/05/03 11:39:28;;;;;;;2.92;1.60;;;;;;;24.88;16.10;98269.03;5017977;28;20045;-75
2022/05/03 11:41:54;;;;;;;4.22;1.63;;;;;;;24.73;15.97;98258.28;5018081;28;20041;-75
2022/05/03 11:44:20;;;;;;;5.03;1.73;;;;;;;24.65;16.17;98256.13;5001228;28;20041;-73
2022/05/03 11:46:48;;;;;;;3.95;1.95;;;;;;;24.49;16.68;98257.34;5032349;28;20480;-71
2022/05/03 11:49:17;;;;;;;7.72;2.08;;;;;;;23.81;16.63;98231.84;5017065;28;20120;-71
2022/05/03 11:57:42;;;;;;;2.85;1.60;;;;;;;23.83;16.54;98245.13;5019415;28;20042;-69
2022/05/03 12:00:11;;;;;;;1.90;1.38;;;;;;;24.24;15.98;98252.84;5009973;28;20097;-71
2022/05/03 12:02:42;;;;;;;13.18;2.30;;;;;;;24.04;16.64;98239.38;5004500;28;20512;-70
2022/05/03 12:05:10;;;;;;;12.60;2.90;;;;;;;24.38;16.38;98243.00;5012698;28;20136;-71
2022/05/03 12:07:41;;;;;;;11.63;1.60;;;;;;;24.50;15.87;98226.38;5049167;28;20055;-71
2022/05/03 12:10:26;;;;;;;6.47;1.77;;;;;;;24.59;15.80;98224.69;5030724;28;20403;-72
2022/05/03 12:13:08;;;;;;;4.07;1.60;;;;;;;23.00;16.13;98230.38;5014532;28;20045;-71
2022/05/03 12:15:45;;;;;;;5.28;1.40;;;;;;;22.98;17.03;98222.53;5014270;28;20045;-72
2022/05/03 12:18:18;;;;;;;3.42;1.52;;;;;;;23.20;16.79;98214.88;4994194;28;20060;-69
2022/05/03 12:20:46;;;;;;;7.07;1.70;;;;;;;23.29;16.96;98194.31;5011448;28;20050;-71
2022/05/03 12:23:19;;;;;;;4.75;1.38;;;;;;;23.13;17.00;98230.63;5006820;28;20067;-70